createdAt,value
2022-10-20T00:03:35.408Z,95.0
2022-10-20T00:08:41.692Z,95.0
2022-10-20T00:13:47.819Z,95.0
2022-10-20T00:18:54.027Z,95.0
2022-10-20T00:24:00.234Z,95.0
2022-10-20T00:29:06.487Z,95.0
2022-10-20T00:34:12.654Z,95.0
2022-10-20T00:39:18.865Z,95.5
2022-10-20T00:44:25.083Z,95.5
2022-10-20T00:49:31.272Z,95.5
2022-10-20T00:54:37.482Z,95.5
2022-10-20T00:59:43.687Z,95.5
2022-10-20T01:04:50.093Z,95.5
2022-10-20T01:09:56.109Z,95.5
2022-10-20T01:15:02.316Z,95.5
2022-10-20T01:20:08.514Z,95.5
2022-10-20T01:25:14.740Z,95.5
2022-10-20T01:30:20.941Z,95.5
2022-10-20T01:35:27.159Z,95.5
2022-10-20T01:40:32.384Z,95.5
2022-10-20T01:45:38.588Z,95.5
2022-10-20T01:50:43.824Z,96.0
2022-10-20T01:55:50.034Z,96.0
2022-10-20T02:06:02.456Z,96.0
2022-10-20T02:11:08.658Z,96.0
2022-10-20T02:16:14.860Z,96.5
2022-10-20T02:21:21.066Z,96.5
2022-10-20T02:26:27.275Z,96.5
2022-10-20T02:31:33.491Z,96.5
2022-10-20T02:36:39.705Z,96.5
2022-10-20T02:41:45.905Z,96.5
2022-10-20T02:46:52.105Z,97.0
2022-10-20T02:51:58.319Z,97.0
2022-10-20T02:57:04.524Z,97.0
2022-10-20T03:02:10.730Z,97.0
2022-10-20T03:07:16.947Z,97.0
2022-10-20T03:12:23.146Z,97.0
2022-10-20T03:17:29.362Z,97.0
2022-10-20T03:22:35.563Z,97.0
2022-10-20T03:27:41.777Z,97.0
2022-10-20T03:32:47.982Z,97.5
2022-10-20T03:37:53.221Z,97.5
2022-10-20T03:42:59.430Z,97.5
2022-10-20T03:48:04.664Z,97.5
2022-10-20T03:53:10.870Z,97.5
2022-10-20T03:58:17.097Z,97.5
2022-10-20T04:03:23.277Z,97.5
2022-10-20T04:08:29.526Z,97.5
2022-10-20T04:13:35.698Z,97.5
2022-10-20T04:18:41.919Z,97.5
2022-10-20T04:23:48.116Z,97.5
2022-10-20T04:28:54.320Z,97.5
2022-10-20T04:34:00.529Z,97.5
2022-10-20T04:39:06.733Z,98.0
2022-10-20T04:44:12.949Z,98.0
2022-10-20T04:49:19.151Z,98.0
2022-10-20T04:54:25.365Z,98.0
2022-10-20T04:59:31.569Z,98.0
2022-10-20T05:04:37.777Z,98.0
2022-10-20T05:09:43.984Z,98.0
2022-10-20T05:14:50.194Z,98.0
2022-10-20T05:19:56.402Z,98.0
2022-10-20T05:25:24.422Z,98.0
2022-10-20T05:30:08.832Z,98.0
2022-10-20T05:35:14.062Z,98.0
2022-10-20T05:40:20.261Z,98.0
2022-10-20T05:45:25.499Z,98.0
2022-10-20T05:50:31.769Z,98.0
2022-10-20T05:55:37.915Z,98.0
2022-10-20T06:00:44.132Z,98.0
2022-10-20T06:05:50.324Z,98.0
2022-10-20T06:10:56.537Z,98.0
2022-10-20T06:16:02.751Z,98.0
2022-10-20T06:21:08.955Z,98.0
2022-10-20T06:26:15.165Z,98.0
2022-10-20T06:31:21.376Z,98.0
2022-10-20T06:36:27.580Z,98.0
2022-10-20T06:41:33.793Z,98.5
2022-10-20T06:46:40.008Z,98.5
2022-10-20T06:51:46.222Z,98.5
2022-10-20T06:56:52.420Z,98.5
2022-10-20T07:01:58.695Z,98.5
2022-10-20T07:07:04.834Z,98.5
2022-10-20T07:12:11.033Z,98.5
2022-10-20T07:17:17.249Z,98.0
2022-10-20T07:22:23.452Z,98.0
2022-10-20T07:27:29.663Z,98.0
2022-10-20T07:32:35.377Z,97.5
2022-10-20T07:37:41.106Z,97.5
2022-10-20T07:42:46.342Z,97.5
2022-10-20T07:47:52.551Z,97.5
2022-10-20T07:52:58.753Z,97.0
2022-10-20T07:58:04.962Z,97.0
2022-10-20T08:03:11.181Z,97.0
2022-10-20T08:08:17.378Z,97.0
2022-10-20T08:13:23.590Z,96.5
2022-10-20T08:18:29.805Z,96.5
2022-10-20T08:23:36.002Z,96.5
2022-10-20T08:28:42.214Z,96.0
2022-10-20T08:33:52.387Z,96.0
2022-10-20T08:38:54.635Z,96.0
2022-10-20T08:44:00.850Z,96.0
2022-10-20T08:49:07.055Z,96.0
2022-10-20T08:54:13.274Z,96.0
2022-10-20T08:59:19.483Z,96.0
2022-10-20T09:04:25.691Z,95.5
2022-10-20T09:09:31.898Z,95.5
2022-10-20T09:14:38.114Z,95.0
2022-10-20T09:19:44.331Z,95.0
2022-10-20T09:24:50.565Z,95.0
2022-10-20T09:29:55.793Z,94.5
2022-10-20T09:35:02.014Z,94.5
2022-10-20T09:40:07.255Z,94.5
2022-10-20T09:45:13.471Z,94.5
2022-10-20T09:50:19.674Z,94.5
2022-10-20T09:55:25.880Z,94.5
2022-10-20T10:00:37.253Z,94.5
2022-10-20T10:05:38.298Z,94.5
2022-10-20T10:10:44.515Z,94.5
2022-10-20T10:15:50.730Z,94.5
2022-10-20T10:20:56.945Z,94.5
2022-10-20T10:26:03.452Z,94.5
2022-10-20T10:31:09.399Z,94.0
2022-10-20T10:36:15.569Z,94.0
2022-10-20T10:41:21.765Z,94.0
2022-10-20T10:46:27.977Z,94.0
2022-10-20T10:51:34.187Z,94.0
2022-10-20T10:56:40.400Z,94.0
2022-10-20T11:01:46.607Z,94.0
2022-10-20T11:06:55.579Z,94.0
2022-10-20T11:11:59.020Z,94.0
2022-10-20T11:17:05.231Z,94.0
2022-10-20T11:22:14.049Z,94.0
2022-10-20T11:27:16.668Z,94.5
2022-10-20T11:32:22.937Z,94.5
2022-10-20T11:37:29.091Z,95.0
2022-10-20T11:42:35.772Z,95.0
2022-10-20T11:47:41.565Z,95.0
2022-10-20T11:52:47.725Z,95.5
2022-10-20T11:57:56.459Z,96.0
2022-10-20T12:03:00.145Z,96.0
2022-10-20T12:08:28.130Z,96.5
2022-10-20T12:13:12.575Z,97.0
2022-10-20T12:18:18.776Z,97.5
2022-10-20T12:23:24.988Z,98.0
2022-10-20T12:28:31.234Z,98.0
2022-10-20T12:33:37.398Z,98.5
2022-10-20T12:38:43.606Z,98.5
2022-10-20T12:43:49.822Z,98.5
2022-10-20T12:48:56.033Z,98.5
2022-10-20T12:54:02.250Z,98.5
2022-10-20T12:59:08.457Z,98.5
2022-10-20T13:04:14.657Z,98.5
2022-10-20T13:09:20.872Z,98.5
2022-10-20T13:14:26.100Z,98.5
2022-10-20T13:19:32.320Z,98.5
2022-10-20T13:24:40.599Z,98.5
2022-10-20T13:29:43.803Z,98.5
2022-10-20T13:34:49.961Z,98.5
2022-10-20T13:39:55.201Z,98.5
2022-10-20T13:45:01.420Z,98.5
2022-10-20T13:50:07.769Z,98.5
2022-10-20T13:55:13.835Z,98.5
2022-10-20T14:00:20.044Z,98.5
2022-10-20T14:05:26.257Z,98.5
2022-10-20T14:10:32.465Z,98.5
2022-10-20T14:15:38.667Z,98.5
2022-10-20T14:20:44.877Z,98.5
2022-10-20T14:25:51.091Z,98.5
2022-10-20T14:30:57.286Z,98.5
2022-10-20T14:36:03.502Z,98.5
2022-10-20T14:41:09.707Z,98.5
2022-10-20T14:46:15.917Z,98.5
2022-10-20T14:51:22.129Z,98.5
2022-10-20T14:56:28.332Z,98.5
2022-10-20T15:01:34.540Z,98.5
2022-10-20T15:06:40.751Z,98.0
2022-10-20T15:11:46.961Z,98.0
2022-10-20T15:16:53.169Z,97.5
2022-10-20T15:21:59.520Z,97.5
2022-10-20T15:27:04.617Z,97.5
2022-10-20T15:32:10.821Z,97.5
2022-10-20T15:37:17.038Z,97.5
2022-10-20T15:42:23.246Z,97.5
2022-10-20T15:47:29.448Z,97.5
2022-10-20T15:52:35.973Z,97.5
2022-10-20T15:57:41.866Z,97.5
2022-10-20T16:02:48.082Z,97.5
2022-10-20T16:07:54.287Z,98.0
2022-10-20T16:13:00.499Z,98.0
2022-10-20T16:18:09.642Z,98.0
2022-10-20T16:23:12.910Z,98.0
2022-10-20T16:28:19.123Z,98.0
2022-10-20T16:33:25.330Z,98.0
2022-10-20T16:38:31.532Z,98.0
2022-10-20T16:43:37.741Z,98.0
2022-10-20T16:48:47.288Z,98.0
2022-10-20T16:53:50.155Z,98.0
2022-10-20T16:58:56.363Z,98.0
2022-10-20T17:04:02.581Z,98.5
2022-10-20T17:09:08.827Z,98.5
2022-10-20T17:14:14.018Z,98.5
2022-10-20T17:19:20.235Z,98.5
2022-10-20T17:24:25.483Z,98.5
2022-10-20T17:29:31.679Z,98.5
2022-10-20T17:34:37.883Z,98.5
2022-10-20T17:39:44.090Z,98.5
2022-10-20T17:44:50.294Z,98.5
2022-10-20T17:49:56.587Z,98.5
2022-10-20T17:55:02.715Z,98.5
2022-10-20T18:00:11.748Z,98.5
2022-10-20T18:05:15.124Z,98.5
2022-10-20T18:15:27.542Z,98.5
2022-10-20T18:20:34.434Z,98.5
2022-10-20T18:25:39.963Z,98.5
2022-10-20T18:30:46.169Z,98.5
2022-10-20T18:35:52.380Z,98.5
2022-10-20T18:40:58.585Z,98.5
2022-10-20T18:46:04.795Z,98.5
2022-10-20T18:51:11.008Z,98.5
2022-10-20T18:56:17.213Z,98.5
2022-10-20T19:01:23.503Z,98.5
2022-10-20T19:06:29.628Z,98.5
2022-10-20T19:11:34.900Z,98.5
2022-10-20T19:16:41.073Z,98.5
2022-10-20T19:21:46.297Z,98.5
2022-10-20T19:27:02.154Z,98.5
2022-10-20T19:31:57.746Z,98.5
2022-10-20T19:37:03.949Z,98.5
2022-10-20T19:42:10.163Z,98.5
2022-10-20T19:47:16.364Z,98.5
2022-10-20T19:52:22.580Z,98.5
2022-10-20T19:57:28.786Z,98.5
2022-10-20T20:02:35.323Z,98.5
2022-10-20T20:07:41.201Z,98.5
2022-10-20T20:12:47.415Z,98.5
2022-10-20T20:17:53.613Z,98.5
2022-10-20T20:22:59.827Z,98.5
2022-10-20T20:28:06.046Z,98.5
2022-10-20T20:38:18.449Z,98.5
2022-10-20T20:43:24.664Z,98.5
2022-10-20T20:48:30.866Z,98.5
2022-10-20T20:53:37.086Z,98.5
2022-10-20T20:58:43.306Z,98.5
2022-10-20T21:03:49.501Z,98.5
2022-10-20T21:08:55.825Z,98.5
2022-10-20T21:14:01.915Z,98.5
2022-10-20T21:19:07.156Z,98.5
2022-10-20T21:24:13.379Z,98.5
2022-10-20T21:29:18.622Z,98.5
2022-10-20T21:34:24.835Z,98.5
2022-10-20T21:44:37.277Z,98.5
2022-10-20T21:49:43.493Z,98.5
2022-10-20T21:54:49.700Z,98.5
2022-10-20T21:59:55.909Z,98.5
2022-10-20T22:05:02.184Z,98.5
2022-10-20T22:10:08.349Z,98.5
2022-10-20T22:15:14.565Z,98.5
2022-10-20T22:20:20.782Z,98.5
2022-10-20T22:25:26.993Z,98.5
2022-10-20T22:30:33.211Z,98.5
2022-10-20T22:35:39.420Z,98.5
2022-10-20T22:40:45.643Z,98.5
2022-10-20T22:45:51.853Z,98.5
2022-10-20T22:50:58.071Z,98.5
2022-10-20T22:56:04.286Z,98.5
2022-10-20T23:01:10.727Z,98.5
2022-10-20T23:06:16.704Z,98.5
2022-10-20T23:11:22.924Z,98.5
2022-10-20T23:16:28.170Z,98.5
2022-10-20T23:21:34.362Z,98.5
2022-10-20T23:26:39.599Z,98.5
2022-10-20T23:31:45.815Z,98.5
2022-10-20T23:36:52.025Z,98.5
2022-10-20T23:41:59.073Z,98.5
2022-10-20T23:47:04.440Z,98.5
2022-10-20T23:52:10.679Z,98.5
2022-10-20T23:57:16.883Z,98.5
